Nearby METAR Reports

 

KBGR - Bangor, Maine, USA
Distance from station: E 5mi, 8km
Updated: Thu, 26-May-2022 10:53pm EDT
Light rain, Mostly cloudy
Light rain, Mostly cloudy
 Wind from S
Wind: S 12 mph , 19 km/h, Gust: 22 mph , 35 km/h
Temperature: 54°F , 12°C
Dew Point: 50°F , 10°C
Humidity: 88%
Barometer: 30.03 inHg , 1016.9 hPa
Summary: Light rain
Clouds: Mostly cloudy
Visibility: 10 miles , 16 km
Cloud details: Partly cloudy 9000 ft
Mostly cloudy 12000 ft
2022/05/27 02:53 KBGR 270253Z 19010G19KT 10SM -RA SCT090 BKN120 12/10 A3003 RMK AO2 RAB29 SLP166 P0000 60000 T01220100 56015
KBHB - Bar Harbor, Maine, USA
Distance from station: SE 37mi, 59km
Updated: Thu, 26-May-2022 10:56pm EDT
Mostly cloudy
Mostly cloudy
 Wind from SSW
Wind: SSW 18 mph , 30 km/h, Gust: 25 mph , 41 km/h
Temperature: 54°F , 12°C
Dew Point: 50°F , 10°C
Humidity: 88%
Barometer: 30.06 inHg , 1017.9 hPa
Clouds: Mostly cloudy
Visibility: 10 miles , 16 km
Cloud details: Mostly cloudy 10000 ft
Mostly cloudy 11000 ft
2022/05/27 02:56 KBHB 270256Z AUTO 20016G22KT 10SM BKN100 BKN110 12/10 A3006 RMK AO2 RAB32E50 SLP182 P0000 60000 T01220100 56023 $
 
KAUG - Augusta, Maine, USA
Distance from station: SW 55mi, 89km
Updated: Thu, 26-May-2022 10:53pm EDT
Clear
Clear
 Wind from varies
Wind: varies 6 mph , 9 km/h
Temperature: 57°F , 14°C
Dew Point: 50°F , 10°C
Humidity: 77%
Barometer: 30.03 inHg , 1016.9 hPa
Clouds: Clear
Visibility: 10 miles , 16 km
2022/05/27 02:53 KAUG 270253Z AUTO VRB05KT 10SM CLR 14/10 A3003 RMK AO2 SLP168 T01390100 56014 PWINO
KGNR - Greenville, Maine, USA
Distance from station: NW 55mi, 89km
Updated: Thu, 26-May-2022 10:56pm EDT

 Wind from varies
Wind: varies 3 mph , 6 km/h
Temperature: 54°F , 12°C
Dew Point: 46°F , 8°C
Humidity: 77%
Barometer: 29.94 inHg , 1013.9 hPa
2022/05/27 02:56 KGNR 270256Z AUTO VRB03KT 12/08 A2994 RMK AO1 SLP143 T01170078 56013
 
KMLT - Millinocket, Maine, USA
Distance from station: N 59mi, 95km
Updated: Thu, 26-May-2022 10:53pm EDT
Light rain, Mostly cloudy
Light rain, Mostly cloudy
 Wind from S
Wind: S 8 mph , 13 km/h
Temperature: 54°F , 12°C
Dew Point: 46°F , 8°C
Humidity: 77%
Barometer: 29.99 inHg , 1015.6 hPa
Summary: Light rain
Clouds: Mostly cloudy
Visibility: 10 miles , 16 km
Cloud details: Partly cloudy 7000 ft
Mostly cloudy 8500 ft
Mostly cloudy 11000 ft
2022/05/27 02:53 KMLT 270253Z AUTO 19007KT 140V230 10SM -RA SCT070 BKN085 BKN110 12/08 A2999 RMK AO2 RAB53 SLP161 P0000 60000 T01220083 56013 TSNO
KLEW - Auburn/Lewiston, Maine, USA
Distance from station: SW 86mi, 138km
Updated: Thu, 26-May-2022 10:56pm EDT
Partly cloudy
Partly cloudy
 Wind from SSE
Wind: SSE 5 mph , 7 km/h
Temperature: 57°F , 14°C
Dew Point: 52°F , 11°C
Humidity: 82%
Barometer: 30.03 inHg , 1016.9 hPa
Clouds: Partly cloudy
Visibility: 10 miles , 16 km
Cloud details: Partly cloudy 11000 ft
2022/05/27 02:56 KLEW 270256Z AUTO 16004KT 10SM SCT110 14/11 A3003 RMK AO2 SLPNO T01390106 56012
 
KHUL - Houlton, Maine, USA
Distance from station: NNE 105mi, 169km
Updated: Thu, 26-May-2022 10:53pm EDT
Light rain, Overcast
Light rain, Overcast
 Wind from varies
Wind: varies 3 mph , 6 km/h
Temperature: 50°F , 10°C
Dew Point: 45°F , 7°C
Humidity: 82%
Barometer: 29.97 inHg , 1014.9 hPa
Summary: Light rain
Clouds: Overcast
Visibility: 10 miles , 16 km
Cloud details: Overcast 6000 ft
2022/05/27 02:53 KHUL 270253Z AUTO VRB03KT 10SM -RA OVC060 10/07 A2997 RMK AO2 RAB11 SLP150 P0003 60006 T01000072 58014
KPWM - Portland, Maine, USA
Distance from station: SW 105mi, 170km
Updated: Thu, 26-May-2022 10:51pm EDT
Mostly cloudy
Mostly cloudy
 Wind from S
Wind: S 9 mph , 15 km/h
Temperature: 57°F , 14°C
Dew Point: 52°F , 11°C
Humidity: 82%
Barometer: 30.04 inHg , 1017.3 hPa
Clouds: Mostly cloudy
Visibility: 10 miles , 16 km
Cloud details: Mostly cloudy 11000 ft
Mostly cloudy 25000 ft
2022/05/27 02:51 KPWM 270251Z 19008KT 10SM BKN110 BKN250 14/11 A3004 RMK AO2 SLP170 T01440106 56016
 
KBML - Berlin, New Hampshire, USA
Distance from station: W 113mi, 181km
Updated: Thu, 26-May-2022 10:52pm EDT
Mostly cloudy
Mostly cloudy
 Wind from varies
Wind: varies 3 mph , 6 km/h
Temperature: 61°F , 16°C
Dew Point: 48°F , 9°C
Humidity: 63%
Barometer: 29.98 inHg , 1015.2 hPa
Clouds: Mostly cloudy
Visibility: 10 miles , 16 km
Cloud details: Mostly cloudy 8000 ft
2022/05/27 02:52 KBML 270252Z AUTO VRB03KT 10SM BKN080 16/09 A2998 RMK AO2 SLP151 T01560094 58006
KIZG - Fryeburg, Maine, USA
Distance from station: WSW 116mi, 186km
Updated: Thu, 26-May-2022 10:54pm EDT
Few Clouds
Few Clouds
 Wind from SSW
Wind: SSW 5 mph , 7 km/h
Temperature: 61°F , 16°C
Dew Point: 50°F , 10°C
Humidity: 68%
Barometer: 30.02 inHg , 1016.6 hPa
Clouds: Few Clouds
Visibility: 10 miles , 16 km
Cloud details: Few Clouds 11000 ft
2022/05/27 02:54 KIZG 270254Z AUTO 20004KT 10SM FEW110 16/10 A3002 RMK AO2 SLP164 T01610100 56009
 
KMWN - Mount Washington, New Hampshire, USA
Distance from station: WSW 123mi, 198km
Updated: Thu, 26-May-2022 9:50pm EDT
NOT Current
Fog, Overcast
Fog, Overcast
 Wind from W
Wind: W 45 mph , 72 km/h
Temperature: 45°F , 7°C
Wind Chill: 33°F , 1°C
Dew Point: 45°F , 7°C
Humidity: 100%
Summary: Fog
Clouds: Overcast
Visibility: 1/8 mile , 0.2 km
Cloud details: Overcast 100 ft
2022/05/27 01:50 KMWN 270150Z 26039KT 1/8SM FG VV001 07/07 RMK
KCAR - Caribou, Maine, USA
Distance from station: NNE 148mi, 238km
Updated: Thu, 26-May-2022 10:54pm EDT
Overcast
Overcast
 Wind from SSE
Wind: SSE 12 mph , 19 km/h, Gust: 20 mph , 31 km/h
Temperature: 48°F , 9°C
Wind Chill: 43°F , 6°C
Dew Point: 43°F , 6°C
Humidity: 82%
Barometer: 29.93 inHg , 1013.5 hPa
Clouds: Overcast
Visibility: 10 miles , 16 km
Cloud details: Overcast 6000 ft
2022/05/27 02:54 KCAR 270254Z AUTO 16010G17KT 10SM OVC060 09/06 A2993 RMK AO2 RAE50 SLP140 P0002 60005 T00940056 58009